Ana Sayfa
METAR-TAF:

METAR-TAF

Havaalanları :

Cambridge, Maryland, Amerika Birleşik Devletleri

Enlem: 38-32-22N, Boylam: 076-01-49W, yükseklik: 6 m

Güncel hava durumu gözlemi

Rapor saat 05:35 UTC de 7 dakika önce yapıldı.
Rüzgar kuzey/kuzeydoğudan 9 kt
Sıcaklık -5°C
Nem 63%
Basınç 1030 hPa
Görüş mesafesi: 9.7 km
2700 ft yükseklikte çok bulutlu
Toz Pusu

METAR: KCGE 220535Z AUTO 02009KT 6SM HZ OVC027 M05/M11 A3043 RMK A01

Saat: 00:42 (05:42 UTC)


TAF: eksik

4.000'den fazla havaalanı için hava durumu gözlemleri ve tahminleri (METAR ve TAF raporları).

Kullanılabilir istasyonlar harita üzerinde sarı ve kırmızı noktalarla gösterilir.

İstasyonun adını görmek için fareyi noktanın üzerinde gezdirin.

Sonrasında hava gözlem ve tahminlerini görmek için tıklayın.

Haritayı değiştirmek için: yaklaştırmak için siyah artı işaretli yeşil düğmeye ve uzaklaştırmak için de eksi işaretli düğmeye hızla tıklayın; bitişik haritalar için yeşil okları kullanın.


METAR-TAF: